createdAt,value
2023-05-20T00:00:56.335Z,16.46
2023-05-20T00:01:56.324Z,16.45
2023-05-20T00:02:57.073Z,16.44
2023-05-20T00:03:57.147Z,16.41
2023-05-20T00:04:56.979Z,16.40
2023-05-20T00:05:56.969Z,16.37
2023-05-20T00:06:56.960Z,16.35
2023-05-20T00:07:56.259Z,16.34
2023-05-20T00:08:56.502Z,16.32
2023-05-20T00:09:56.908Z,16.31
2023-05-20T00:10:56.920Z,16.29
2023-05-20T00:11:56.907Z,16.29
2023-05-20T00:12:56.897Z,16.27
2023-05-20T00:13:56.216Z,16.25
2023-05-20T00:14:56.873Z,16.24
2023-05-20T00:15:56.861Z,16.23
2023-05-20T00:16:56.940Z,16.21
2023-05-20T00:17:56.289Z,16.18
2023-05-20T00:18:56.919Z,16.16
2023-05-20T00:19:56.813Z,16.14
2023-05-20T00:20:56.807Z,16.12
2023-05-20T00:21:56.792Z,16.11
2023-05-20T00:22:56.249Z,16.09
2023-05-20T00:23:56.783Z,16.08
2023-05-20T00:24:56.072Z,16.06
2023-05-20T00:25:57.841Z,16.03
2023-05-20T00:26:56.077Z,16.01
2023-05-20T00:27:56.240Z,16.00
2023-05-20T00:28:56.713Z,15.98
2023-05-20T00:29:56.024Z,15.96
2023-05-20T00:30:56.716Z,15.95
2023-05-20T00:31:56.061Z,15.93
2023-05-20T00:32:56.695Z,15.92
2023-05-20T00:33:56.680Z,15.89
2023-05-20T00:34:56.655Z,15.89
2023-05-20T00:35:56.660Z,15.86
2023-05-20T00:36:56.620Z,15.84
2023-05-20T00:37:56.619Z,15.82
2023-05-20T00:38:56.615Z,15.79
2023-05-20T00:39:56.591Z,15.77
2023-05-20T00:40:56.593Z,15.75
2023-05-20T00:41:56.553Z,15.73
2023-05-20T00:42:55.890Z,15.70
2023-05-20T00:43:56.554Z,15.68
2023-05-20T00:44:56.543Z,15.67
2023-05-20T00:45:56.544Z,15.64
2023-05-20T00:46:55.851Z,15.62
2023-05-20T00:47:55.849Z,15.60
2023-05-20T00:48:55.799Z,15.57
2023-05-20T00:49:55.803Z,15.55
2023-05-20T00:50:55.795Z,15.53
2023-05-20T00:51:56.472Z,15.50
2023-05-20T00:52:56.451Z,15.49
2023-05-20T00:53:55.767Z,15.47
2023-05-20T00:54:55.756Z,15.45
2023-05-20T00:55:56.404Z,15.43
2023-05-20T00:56:56.409Z,15.40
2023-05-20T00:57:56.396Z,15.39
2023-05-20T00:58:55.703Z,15.36
2023-05-20T00:59:56.358Z,15.35
2023-05-20T01:00:55.720Z,15.33
2023-05-20T01:01:56.400Z,15.32
2023-05-20T01:02:56.459Z,15.30
2023-05-20T01:03:56.379Z,15.28
2023-05-20T01:04:56.319Z,15.26
2023-05-20T01:05:55.634Z,15.23
2023-05-20T01:06:56.308Z,15.20
2023-05-20T01:07:56.298Z,15.19
2023-05-20T01:08:56.274Z,15.16
2023-05-20T01:09:56.365Z,15.16
2023-05-20T01:10:55.585Z,15.13
2023-05-20T01:11:55.566Z,15.11
2023-05-20T01:12:56.240Z,15.09
2023-05-20T01:13:56.208Z,15.07
2023-05-20T01:14:56.204Z,15.05
2023-05-20T01:15:56.219Z,15.04
2023-05-20T01:16:55.521Z,15.02
2023-05-20T01:17:56.242Z,15.01
2023-05-20T01:18:55.543Z,15.00
2023-05-20T01:19:56.157Z,14.98
2023-05-20T01:20:56.161Z,14.96
2023-05-20T01:21:56.134Z,14.94
2023-05-20T01:22:55.434Z,14.91
2023-05-20T01:23:55.460Z,14.91
2023-05-20T01:24:55.415Z,14.88
2023-05-20T01:25:56.086Z,14.87
2023-05-20T01:26:56.083Z,14.86
2023-05-20T01:27:56.054Z,14.84
2023-05-20T01:28:55.423Z,14.82
2023-05-20T01:29:55.371Z,14.81
2023-05-20T01:30:56.065Z,14.80
2023-05-20T01:31:56.074Z,14.79
2023-05-20T01:32:56.062Z,14.77
2023-05-20T01:33:55.312Z,14.75
2023-05-20T01:34:55.295Z,14.75
2023-05-20T01:35:55.979Z,14.72
2023-05-20T01:36:55.974Z,14.71
2023-05-20T01:37:55.939Z,14.70
2023-05-20T01:38:55.955Z,14.70
2023-05-20T01:39:55.254Z,14.68
2023-05-20T01:40:55.920Z,14.67
2023-05-20T01:41:55.242Z,14.66
2023-05-20T01:42:55.906Z,14.65
2023-05-20T01:43:55.899Z,14.64
2023-05-20T01:44:55.192Z,14.63
2023-05-20T01:45:55.183Z,14.63
2023-05-20T01:46:55.226Z,14.62
2023-05-20T01:47:55.914Z,14.61
2023-05-20T01:48:55.148Z,14.61
2023-05-20T01:49:55.821Z,14.59
2023-05-20T01:50:55.814Z,14.59
2023-05-20T01:51:55.125Z,14.57
2023-05-20T01:52:55.798Z,14.57
2023-05-20T01:53:55.780Z,14.56
2023-05-20T01:54:55.537Z,14.56
2023-05-20T01:55:55.753Z,14.55
2023-05-20T01:56:55.733Z,14.54
2023-05-20T01:57:55.038Z,14.53
2023-05-20T01:58:55.727Z,14.52
2023-05-20T01:59:55.716Z,14.51
2023-05-20T02:00:55.756Z,14.51
2023-05-20T02:01:55.025Z,14.49
2023-05-20T02:02:55.070Z,14.48
2023-05-20T02:03:54.991Z,14.45
2023-05-20T02:04:54.955Z,14.45
2023-05-20T02:05:55.700Z,14.45
2023-05-20T02:06:55.663Z,14.42
2023-05-20T02:07:55.635Z,14.42
2023-05-20T02:08:54.926Z,14.41
2023-05-20T02:09:54.939Z,14.39
2023-05-20T02:10:55.575Z,14.38
2023-05-20T02:11:54.928Z,14.37
2023-05-20T02:12:55.588Z,14.36
2023-05-20T02:13:55.604Z,14.35
2023-05-20T02:14:54.877Z,14.34
2023-05-20T02:15:55.548Z,14.33
2023-05-20T02:16:54.865Z,14.31
2023-05-20T02:17:55.535Z,14.30
2023-05-20T02:18:55.593Z,14.29
2023-05-20T02:19:55.487Z,14.27
2023-05-20T02:20:55.495Z,14.26
2023-05-20T02:21:55.486Z,14.24
2023-05-20T02:22:54.804Z,14.22
2023-05-20T02:23:55.457Z,14.21
2023-05-20T02:24:55.432Z,14.19
2023-05-20T02:25:54.754Z,14.17
2023-05-20T02:26:54.755Z,14.16
2023-05-20T02:27:54.723Z,14.14
2023-05-20T02:28:55.389Z,14.12
2023-05-20T02:29:55.391Z,14.12
2023-05-20T02:30:54.682Z,14.10
2023-05-20T02:31:54.682Z,14.09
2023-05-20T02:32:54.876Z,14.08
2023-05-20T02:33:54.744Z,14.07
2023-05-20T02:34:55.344Z,14.05
2023-05-20T02:35:55.338Z,14.05
2023-05-20T02:36:54.644Z,14.05
2023-05-20T02:37:54.635Z,14.05
2023-05-20T02:38:54.633Z,14.04
2023-05-20T02:39:55.285Z,14.04
2023-05-20T02:40:55.277Z,14.03
2023-05-20T02:41:55.266Z,14.02
2023-05-20T02:42:55.239Z,14.02
2023-05-20T02:43:54.555Z,14.02
2023-05-20T02:44:55.240Z,14.02
2023-05-20T02:45:55.291Z,14.01
2023-05-20T02:46:55.209Z,14.00
2023-05-20T02:47:55.225Z,13.99
2023-05-20T02:48:54.493Z,13.99
2023-05-20T02:49:54.494Z,13.97
2023-05-20T02:50:55.173Z,13.96
2023-05-20T02:51:55.145Z,13.95
2023-05-20T02:52:55.149Z,13.95
2023-05-20T02:53:55.166Z,13.93
2023-05-20T02:54:56.121Z,13.93
2023-05-20T02:55:55.129Z,13.93
2023-05-20T02:56:54.428Z,13.92
2023-05-20T02:57:55.094Z,13.90
2023-05-20T02:58:55.093Z,13.89
2023-05-20T02:59:55.082Z,13.89
2023-05-20T03:00:55.066Z,13.87
2023-05-20T03:01:54.428Z,13.86
2023-05-20T03:02:55.063Z,13.85
2023-05-20T03:03:55.042Z,13.83
2023-05-20T03:04:54.410Z,13.81
2023-05-20T03:05:54.337Z,13.80
2023-05-20T03:06:54.333Z,13.78
2023-05-20T03:07:55.008Z,13.77
2023-05-20T03:08:54.982Z,13.76
2023-05-20T03:09:54.971Z,13.74
2023-05-20T03:10:54.287Z,13.72
2023-05-20T03:11:54.253Z,13.72
2023-05-20T03:12:54.273Z,13.70
2023-05-20T03:13:54.241Z,13.69
2023-05-20T03:14:54.918Z,13.67
2023-05-20T03:15:54.262Z,13.66
2023-05-20T03:16:54.885Z,13.67
2023-05-20T03:17:54.224Z,13.66
2023-05-20T03:18:54.905Z,13.67
2023-05-20T03:19:54.195Z,13.67
2023-05-20T03:20:54.192Z,13.68
2023-05-20T03:21:54.146Z,13.69
2023-05-20T03:22:54.821Z,13.70
2023-05-20T03:23:54.141Z,13.70
2023-05-20T03:24:54.131Z,13.71
2023-05-20T03:25:54.793Z,13.72
2023-05-20T03:26:54.779Z,13.73
2023-05-20T03:27:54.088Z,13.74
2023-05-20T03:28:54.753Z,13.74
2023-05-20T03:29:54.727Z,13.76
2023-05-20T03:30:54.772Z,13.77
2023-05-20T03:31:54.789Z,13.78
2023-05-20T03:32:54.751Z,13.79
2023-05-20T03:33:54.683Z,13.80
2023-05-20T03:34:54.690Z,13.81
2023-05-20T03:35:54.691Z,13.82
2023-05-20T03:36:54.676Z,13.84
2023-05-20T03:37:54.660Z,13.85
2023-05-20T03:38:54.629Z,13.87
2023-05-20T03:39:54.641Z,13.88
2023-05-20T03:40:53.949Z,13.89
2023-05-20T03:41:53.916Z,13.90
2023-05-20T03:42:56.368Z,13.91
2023-05-20T03:43:54.134Z,13.92
2023-05-20T03:44:54.583Z,13.94
2023-05-20T03:45:54.579Z,13.95
2023-05-20T03:46:53.971Z,13.96
2023-05-20T03:47:53.934Z,13.97
2023-05-20T03:48:53.853Z,13.99
2023-05-20T03:49:54.532Z,14.01
2023-05-20T03:50:54.521Z,14.02
2023-05-20T03:51:53.819Z,14.04
2023-05-20T03:52:54.477Z,14.06
2023-05-20T03:53:54.484Z,14.07
2023-05-20T03:54:53.805Z,14.11
2023-05-20T03:55:54.476Z,14.14
2023-05-20T03:56:53.777Z,14.17
2023-05-20T03:57:54.431Z,14.21
2023-05-20T03:58:53.748Z,14.23
2023-05-20T03:59:54.421Z,14.27
2023-05-20T04:00:54.411Z,14.30
2023-05-20T04:01:54.419Z,14.33
2023-05-20T04:02:53.819Z,14.37
2023-05-20T04:03:54.424Z,14.40
2023-05-20T04:04:54.637Z,14.44
2023-05-20T04:05:54.356Z,14.48
2023-05-20T04:06:53.689Z,14.52
2023-05-20T04:07:54.352Z,14.56
2023-05-20T04:08:54.352Z,14.63
2023-05-20T04:09:54.310Z,14.70
2023-05-20T04:10:54.286Z,14.78
2023-05-20T04:11:54.280Z,14.88
2023-05-20T04:12:54.269Z,14.98
2023-05-20T04:13:54.271Z,15.10
2023-05-20T04:14:54.254Z,15.24
2023-05-20T04:15:54.229Z,15.37
2023-05-20T04:16:53.591Z,15.52
2023-05-20T04:17:54.312Z,15.66
2023-05-20T04:18:53.587Z,15.79
2023-05-20T04:19:54.185Z,15.92
2023-05-20T04:20:54.180Z,16.01
2023-05-20T04:21:54.188Z,16.09
2023-05-20T04:22:53.504Z,16.17
2023-05-20T04:23:54.171Z,16.20
2023-05-20T04:24:53.488Z,16.23
2023-05-20T04:25:54.136Z,16.25
2023-05-20T04:26:54.164Z,16.26
2023-05-20T04:27:53.438Z,16.26
2023-05-20T04:28:54.103Z,16.25
2023-05-20T04:29:54.075Z,16.23
2023-05-20T04:30:54.080Z,16.22
2023-05-20T04:31:54.092Z,16.22
2023-05-20T04:32:53.504Z,16.21
2023-05-20T04:33:54.034Z,16.20
2023-05-20T04:34:53.388Z,16.22
2023-05-20T04:35:54.048Z,16.24
2023-05-20T04:36:54.023Z,16.28
2023-05-20T04:37:54.004Z,16.30
2023-05-20T04:38:53.981Z,16.33
2023-05-20T04:39:53.981Z,16.34
2023-05-20T04:40:53.968Z,16.34
2023-05-20T04:41:53.967Z,16.34
2023-05-20T04:42:53.951Z,16.35
2023-05-20T04:43:53.947Z,16.37
2023-05-20T04:44:55.758Z,16.39
2023-05-20T04:45:53.937Z,16.45
2023-05-20T04:46:53.904Z,16.53
2023-05-20T04:47:53.927Z,16.64
2023-05-20T04:48:53.870Z,16.75
2023-05-20T04:49:53.882Z,16.88
2023-05-20T04:50:53.858Z,17.03
2023-05-20T04:51:53.849Z,17.21
2023-05-20T04:52:53.821Z,17.40
2023-05-20T04:53:53.820Z,17.63
2023-05-20T04:54:53.813Z,17.89
2023-05-20T04:55:53.590Z,18.15
2023-05-20T04:56:53.795Z,18.42
2023-05-20T04:57:53.778Z,18.63
2023-05-20T04:58:53.105Z,18.86
2023-05-20T04:59:53.762Z,19.10
2023-05-20T05:00:53.764Z,19.33
2023-05-20T05:01:53.196Z,19.61
2023-05-20T05:02:53.108Z,19.86
2023-05-20T05:03:53.714Z,20.15
2023-05-20T05:04:53.817Z,20.44
2023-05-20T05:05:53.694Z,20.74
2023-05-20T05:06:53.673Z,21.08
2023-05-20T05:07:52.995Z,21.44
2023-05-20T05:08:52.989Z,21.79
2023-05-20T05:09:52.972Z,22.13
2023-05-20T05:10:53.651Z,22.48
2023-05-20T05:11:53.618Z,22.84
2023-05-20T05:12:53.619Z,23.13
2023-05-20T05:13:52.928Z,23.39
2023-05-20T05:14:52.922Z,23.67
2023-05-20T05:15:53.589Z,23.89
2023-05-20T05:16:55.599Z,24.02
2023-05-20T05:17:53.589Z,24.09
2023-05-20T05:18:52.910Z,24.14
2023-05-20T05:19:52.872Z,24.17
2023-05-20T05:20:53.522Z,24.19
2023-05-20T05:21:53.536Z,24.26
2023-05-20T05:22:53.528Z,24.41
2023-05-20T05:23:53.731Z,24.55
2023-05-20T05:24:52.800Z,24.68
2023-05-20T05:25:52.803Z,24.76
2023-05-20T05:26:53.475Z,24.86
2023-05-20T05:27:53.461Z,24.97
2023-05-20T05:28:53.451Z,25.07
2023-05-20T05:29:53.422Z,25.23
2023-05-20T05:30:53.419Z,25.37
2023-05-20T05:31:53.437Z,25.49
2023-05-20T05:32:52.933Z,25.63
2023-05-20T05:33:53.395Z,25.75
2023-05-20T05:34:53.365Z,25.84
2023-05-20T05:35:52.686Z,25.91
2023-05-20T05:36:53.378Z,26.04
2023-05-20T05:37:53.345Z,26.20
2023-05-20T05:38:53.336Z,26.28
2023-05-20T05:39:53.308Z,26.34
2023-05-20T05:40:53.334Z,26.40
2023-05-20T05:41:53.301Z,26.50
2023-05-20T05:42:52.603Z,26.62
2023-05-20T05:43:53.261Z,26.76
2023-05-20T05:44:53.258Z,26.95
2023-05-20T05:45:53.259Z,27.15
2023-05-20T05:46:53.320Z,27.30
2023-05-20T05:47:52.587Z,27.49
2023-05-20T05:48:52.612Z,27.61
2023-05-20T05:49:52.530Z,27.75
2023-05-20T05:50:53.219Z,27.90
2023-05-20T05:51:53.197Z,28.03
2023-05-20T05:52:53.180Z,28.23
2023-05-20T05:53:53.156Z,28.46
2023-05-20T05:54:53.158Z,28.65
2023-05-20T05:55:53.152Z,28.79
2023-05-20T05:56:53.139Z,28.85
2023-05-20T05:57:53.111Z,28.87
2023-05-20T05:58:52.481Z,28.94
2023-05-20T05:59:52.417Z,29.05
2023-05-20T06:00:52.460Z,29.09
2023-05-20T06:01:53.128Z,29.14
2023-05-20T06:02:53.314Z,29.23
2023-05-20T06:03:52.461Z,29.33
2023-05-20T06:04:52.360Z,29.42
2023-05-20T06:05:52.346Z,29.50
2023-05-20T06:06:52.359Z,29.60
2023-05-20T06:07:53.017Z,29.68
2023-05-20T06:08:52.309Z,29.80
2023-05-20T06:09:52.994Z,29.95
2023-05-20T06:10:52.333Z,30.05
2023-05-20T06:11:52.300Z,30.19
2023-05-20T06:12:52.964Z,30.36
2023-05-20T06:13:52.269Z,30.54
2023-05-20T06:14:52.944Z,30.64
2023-05-20T06:15:52.927Z,30.64
2023-05-20T06:16:53.058Z,30.60
2023-05-20T06:17:52.964Z,30.64
2023-05-20T06:18:52.284Z,30.72
2023-05-20T06:19:52.888Z,30.81
2023-05-20T06:20:52.858Z,30.96
2023-05-20T06:21:52.848Z,31.14
2023-05-20T06:22:52.184Z,31.30
2023-05-20T06:23:52.837Z,31.37
2023-05-20T06:24:52.829Z,31.34
2023-05-20T06:25:52.812Z,31.31
2023-05-20T06:26:52.810Z,31.29
2023-05-20T06:27:52.803Z,31.33
2023-05-20T06:28:52.106Z,31.30
2023-05-20T06:29:54.055Z,31.32
2023-05-20T06:30:52.132Z,31.36
2023-05-20T06:31:52.754Z,31.41
2023-05-20T06:32:52.791Z,31.45
2023-05-20T06:33:52.050Z,31.49
2023-05-20T06:34:52.706Z,31.50
2023-05-20T06:35:52.046Z,31.57
2023-05-20T06:36:53.959Z,31.73
2023-05-20T06:37:52.756Z,31.83
2023-05-20T06:38:52.682Z,31.94
2023-05-20T06:39:52.653Z,32.05
2023-05-20T06:40:51.982Z,32.16
2023-05-20T06:41:53.435Z,32.22
2023-05-20T06:42:52.660Z,32.36
2023-05-20T06:43:53.487Z,32.49
2023-05-20T06:44:52.617Z,32.63
2023-05-20T06:45:52.646Z,32.84
2023-05-20T06:46:52.009Z,33.11
2023-05-20T06:47:52.600Z,33.41
2023-05-20T06:48:51.909Z,33.59
2023-05-20T06:49:52.547Z,33.76
2023-05-20T06:50:52.558Z,33.83
2023-05-20T06:51:51.999Z,33.91
2023-05-20T06:52:51.976Z,34.02
2023-05-20T06:53:51.955Z,34.07
2023-05-20T06:54:52.133Z,34.13
2023-05-20T06:55:51.866Z,34.24
2023-05-20T06:56:52.621Z,34.33
2023-05-20T06:57:52.480Z,34.42
2023-05-20T06:58:51.824Z,34.47
2023-05-20T06:59:52.469Z,34.48
2023-05-20T07:00:52.447Z,34.49
2023-05-20T07:01:52.524Z,34.55
2023-05-20T07:02:51.788Z,34.57
2023-05-20T07:03:52.427Z,34.58
2023-05-20T07:04:51.744Z,34.61
2023-05-20T07:05:51.707Z,34.70
2023-05-20T07:06:52.377Z,34.84
2023-05-20T07:07:52.362Z,34.97
2023-05-20T07:08:51.843Z,35.05
2023-05-20T07:09:51.684Z,35.08
2023-05-20T07:10:52.378Z,35.08
2023-05-20T07:11:52.314Z,35.08
2023-05-20T07:12:52.327Z,35.13
2023-05-20T07:13:51.705Z,35.18
2023-05-20T07:14:51.797Z,35.14
2023-05-20T07:15:52.386Z,35.26
2023-05-20T07:16:52.034Z,35.30
2023-05-20T07:17:52.303Z,35.30
2023-05-20T07:18:52.363Z,34.83
2023-05-20T07:19:51.687Z,34.50
2023-05-20T07:20:51.662Z,34.31
2023-05-20T07:21:52.522Z,33.85
2023-05-20T07:22:51.556Z,33.57
2023-05-20T07:23:52.239Z,33.49
2023-05-20T07:24:52.181Z,33.67
2023-05-20T07:25:52.161Z,34.09
2023-05-20T07:26:51.480Z,34.09
2023-05-20T07:27:52.150Z,34.52
2023-05-20T07:28:52.140Z,35.11
2023-05-20T07:29:52.132Z,34.81
2023-05-20T07:30:51.597Z,34.13
2023-05-20T07:31:52.190Z,33.95
2023-05-20T07:32:51.493Z,34.28
2023-05-20T07:33:51.426Z,34.65
2023-05-20T07:34:52.074Z,34.95
2023-05-20T07:35:51.407Z,35.18
2023-05-20T07:36:51.385Z,35.36
2023-05-20T07:37:52.106Z,35.44
2023-05-20T07:39:01.794Z,35.51
2023-05-20T07:39:54.378Z,35.62
2023-05-20T07:40:51.362Z,35.68
2023-05-20T07:41:52.002Z,35.70
2023-05-20T07:42:51.999Z,35.79
2023-05-20T07:43:51.984Z,35.90
2023-05-20T07:44:51.951Z,35.94
2023-05-20T07:45:51.974Z,35.93
2023-05-20T07:46:51.960Z,35.91
2023-05-20T07:47:51.324Z,35.88
2023-05-20T07:48:51.934Z,35.86
2023-05-20T07:49:51.414Z,35.93
2023-05-20T07:50:51.360Z,36.02
2023-05-20T07:51:51.914Z,36.09
2023-05-20T07:52:56.311Z,36.14
2023-05-20T07:53:52.975Z,36.15
2023-05-20T07:54:51.858Z,36.14
2023-05-20T07:55:51.163Z,36.06
2023-05-20T07:56:51.864Z,36.03
2023-05-20T07:57:51.176Z,36.05
2023-05-20T07:58:51.155Z,36.04
2023-05-20T07:59:51.814Z,35.99
2023-05-20T08:00:51.806Z,35.95
2023-05-20T08:01:51.234Z,35.87
2023-05-20T08:02:52.026Z,35.78
2023-05-20T08:03:51.932Z,35.51
2023-05-20T08:04:51.073Z,34.69
2023-05-20T08:05:51.093Z,33.91
2023-05-20T08:06:51.119Z,33.08
2023-05-20T08:07:51.835Z,32.21
2023-05-20T08:08:51.994Z,31.40
2023-05-20T08:09:51.734Z,31.56
2023-05-20T08:10:51.234Z,31.32
2023-05-20T08:11:51.710Z,30.67
2023-05-20T08:12:51.659Z,30.05
2023-05-20T08:13:51.006Z,29.57
2023-05-20T08:14:51.663Z,29.26
2023-05-20T08:15:50.974Z,29.33
2023-05-20T08:16:54.526Z,29.62
2023-05-20T08:17:51.682Z,30.64
2023-05-20T08:18:50.963Z,31.29
2023-05-20T08:19:51.619Z,31.42
2023-05-20T08:20:50.910Z,32.23
2023-05-20T08:21:51.569Z,32.79
2023-05-20T08:22:51.546Z,33.13
2023-05-20T08:23:50.862Z,33.28
2023-05-20T08:24:50.856Z,33.34
2023-05-20T08:25:51.530Z,33.39
2023-05-20T08:26:51.502Z,33.42
2023-05-20T08:27:51.520Z,33.48
2023-05-20T08:28:50.856Z,33.56
2023-05-20T08:29:51.485Z,33.61
2023-05-20T08:30:51.465Z,33.58
2023-05-20T08:31:50.814Z,33.52
2023-05-20T08:32:51.487Z,33.39
2023-05-20T08:33:51.715Z,33.19
2023-05-20T08:34:51.627Z,33.02
2023-05-20T08:35:51.403Z,32.92
2023-05-20T08:36:51.408Z,32.79
2023-05-20T08:37:51.400Z,32.72
2023-05-20T08:38:51.604Z,32.68
2023-05-20T08:39:51.388Z,32.61
2023-05-20T08:40:51.350Z,32.45
2023-05-20T08:41:50.673Z,32.21
2023-05-20T08:42:51.343Z,31.99
2023-05-20T08:43:51.338Z,31.75
2023-05-20T08:44:51.316Z,31.54
2023-05-20T08:45:51.294Z,31.38
2023-05-20T08:46:51.462Z,31.25
2023-05-20T08:47:50.654Z,31.13
2023-05-20T08:48:51.288Z,30.99
2023-05-20T08:49:50.626Z,30.87
2023-05-20T08:50:50.581Z,30.74
2023-05-20T08:51:50.627Z,30.61
2023-05-20T08:52:51.241Z,30.49
2023-05-20T08:53:51.972Z,30.35
2023-05-20T08:54:50.577Z,30.22
2023-05-20T08:55:50.510Z,30.11
2023-05-20T08:56:51.226Z,30.05
2023-05-20T08:57:51.193Z,30.00
2023-05-20T08:58:51.156Z,29.98
2023-05-20T08:59:50.489Z,29.93
2023-05-20T09:00:51.166Z,29.88
2023-05-20T09:01:50.478Z,29.85
2023-05-20T09:02:50.507Z,29.83
2023-05-20T09:03:50.456Z,29.89
2023-05-20T09:04:50.468Z,29.96
2023-05-20T09:05:50.405Z,30.06
2023-05-20T09:06:50.412Z,30.13
2023-05-20T09:07:51.079Z,30.03
2023-05-20T09:08:51.073Z,29.85
2023-05-20T09:09:52.814Z,29.45
2023-05-20T09:10:51.045Z,28.97
2023-05-20T09:11:51.029Z,28.47
2023-05-20T09:12:50.350Z,28.11
2023-05-20T09:13:50.362Z,28.15
2023-05-20T09:14:50.310Z,28.30
2023-05-20T09:15:51.071Z,28.48
2023-05-20T09:16:50.308Z,28.66
2023-05-20T09:17:50.392Z,28.86
2023-05-20T09:18:52.252Z,29.08
2023-05-20T09:19:50.258Z,29.33
2023-05-20T09:20:50.934Z,29.53
2023-05-20T09:21:50.922Z,29.73
2023-05-20T09:22:50.904Z,29.85
2023-05-20T09:23:51.168Z,29.92
2023-05-20T09:24:50.910Z,29.89
2023-05-20T09:25:50.197Z,29.95
2023-05-20T09:26:50.853Z,30.12
2023-05-20T09:27:50.848Z,30.25
2023-05-20T09:28:50.848Z,30.52
2023-05-20T09:29:50.843Z,30.43
2023-05-20T09:30:50.143Z,30.19
2023-05-20T09:31:50.848Z,30.03
2023-05-20T09:32:50.843Z,29.86
2023-05-20T09:33:50.109Z,29.58
2023-05-20T09:34:50.828Z,29.32
2023-05-20T09:35:50.078Z,29.01
2023-05-20T09:36:50.765Z,28.68
2023-05-20T09:37:50.750Z,28.31
2023-05-20T09:38:50.740Z,27.93
2023-05-20T09:39:50.036Z,27.58
2023-05-20T09:40:50.044Z,27.30
2023-05-20T09:41:50.694Z,27.14
2023-05-20T09:42:50.710Z,26.99
2023-05-20T09:43:50.004Z,26.89
2023-05-20T09:44:50.673Z,26.87
2023-05-20T09:45:50.908Z,26.88
2023-05-20T09:46:50.651Z,26.89
2023-05-20T09:47:50.687Z,26.93
2023-05-20T09:48:50.648Z,27.02
2023-05-20T09:49:50.617Z,27.11
2023-05-20T09:50:50.587Z,27.30
2023-05-20T09:51:50.602Z,27.41
2023-05-20T09:52:49.931Z,27.49
2023-05-20T09:53:49.901Z,27.47
2023-05-20T09:54:50.545Z,27.54
2023-05-20T09:55:50.537Z,27.77
2023-05-20T09:56:49.859Z,28.01
2023-05-20T09:57:49.849Z,28.12
2023-05-20T09:58:50.519Z,28.06
2023-05-20T09:59:50.504Z,27.92
2023-05-20T10:00:49.809Z,27.75
2023-05-20T10:01:50.542Z,27.84
2023-05-20T10:02:50.605Z,28.02
2023-05-20T10:03:50.654Z,28.19
2023-05-20T10:04:50.442Z,28.60
2023-05-20T10:05:50.451Z,29.01
2023-05-20T10:06:50.448Z,29.38
2023-05-20T10:07:49.732Z,29.77
2023-05-20T10:08:49.740Z,30.03
2023-05-20T10:09:49.734Z,30.18
2023-05-20T10:10:50.392Z,30.82
2023-05-20T10:11:52.137Z,31.05
2023-05-20T10:12:50.373Z,31.09
2023-05-20T10:13:50.343Z,30.28
2023-05-20T10:14:49.727Z,30.04
2023-05-20T10:15:50.389Z,29.36
2023-05-20T10:16:50.369Z,29.02
2023-05-20T10:17:50.169Z,28.34
2023-05-20T10:18:50.447Z,27.70
2023-05-20T10:19:50.303Z,27.25
2023-05-20T10:20:49.637Z,27.79
2023-05-20T10:21:49.609Z,27.99
2023-05-20T10:22:49.600Z,28.06
2023-05-20T10:23:52.253Z,28.07
2023-05-20T10:24:50.286Z,29.67
2023-05-20T10:25:49.701Z,31.17
2023-05-20T10:26:50.240Z,32.04
2023-05-20T10:27:50.226Z,30.57
2023-05-20T10:28:50.201Z,29.45
2023-05-20T10:29:50.416Z,31.03
2023-05-20T10:30:50.185Z,32.52
2023-05-20T10:31:49.560Z,32.66
2023-05-20T10:32:50.201Z,31.46
2023-05-20T10:33:50.150Z,29.87
2023-05-20T10:34:50.139Z,31.09
2023-05-20T10:35:49.431Z,32.55
2023-05-20T10:36:49.468Z,33.56
2023-05-20T10:37:50.094Z,34.31
2023-05-20T10:38:49.410Z,34.86
2023-05-20T10:39:49.399Z,35.23
2023-05-20T10:40:50.070Z,35.40
2023-05-20T10:41:49.383Z,35.32
2023-05-20T10:42:49.359Z,34.79
2023-05-20T10:43:49.357Z,33.86
2023-05-20T10:44:49.338Z,32.51
2023-05-20T10:45:49.336Z,30.93
2023-05-20T10:47:50.098Z,28.30
2023-05-20T10:48:50.315Z,27.37
2023-05-20T10:49:49.443Z,26.68
2023-05-20T10:50:49.755Z,26.21
2023-05-20T10:51:49.499Z,25.84
2023-05-20T10:52:50.046Z,25.57
2023-05-20T10:53:49.299Z,25.39
2023-05-20T10:54:51.646Z,25.30
2023-05-20T10:55:49.234Z,25.15
2023-05-20T10:56:49.218Z,24.92
2023-05-20T10:57:49.194Z,24.75
2023-05-20T10:58:49.867Z,24.56
2023-05-20T10:59:49.358Z,24.41
2023-05-20T11:00:50.978Z,24.32
2023-05-20T11:01:49.190Z,24.21
2023-05-20T11:02:49.876Z,24.11
2023-05-20T11:03:49.909Z,24.06
2023-05-20T11:04:49.784Z,24.02
2023-05-20T11:05:49.796Z,23.97
2023-05-20T11:06:49.785Z,23.86
2023-05-20T11:07:49.110Z,23.73
2023-05-20T11:08:49.843Z,23.59
2023-05-20T11:09:49.831Z,23.52
2023-05-20T11:10:49.113Z,23.42
2023-05-20T11:11:49.045Z,23.37
2023-05-20T11:12:49.742Z,23.32
2023-05-20T11:13:49.704Z,23.24
2023-05-20T11:14:49.054Z,23.18
2023-05-20T11:15:49.683Z,23.17
2023-05-20T11:16:49.745Z,23.15
2023-05-20T11:17:49.079Z,23.10
2023-05-20T11:18:49.093Z,23.16
2023-05-20T11:19:48.993Z,23.07
2023-05-20T11:20:48.951Z,23.03
2023-05-20T11:21:49.625Z,23.01
2023-05-20T11:22:48.952Z,22.93
2023-05-20T11:23:48.934Z,22.97
2023-05-20T11:24:48.932Z,23.02
2023-05-20T11:25:48.909Z,23.02
2023-05-20T11:26:49.568Z,23.02
2023-05-20T11:27:49.553Z,23.02
2023-05-20T11:28:49.544Z,23.02
2023-05-20T11:29:48.855Z,23.05
2023-05-20T11:30:49.528Z,23.09
2023-05-20T11:31:49.561Z,23.06
2023-05-20T11:32:49.543Z,23.04
2023-05-20T11:33:49.488Z,23.02
2023-05-20T11:34:49.483Z,23.03
2023-05-20T11:35:48.807Z,22.98
2023-05-20T11:36:49.461Z,22.95
2023-05-20T11:37:48.808Z,22.96
2023-05-20T11:38:49.440Z,22.96
2023-05-20T11:39:48.760Z,23.00
2023-05-20T11:40:51.173Z,22.99
2023-05-20T11:41:48.740Z,22.99
2023-05-20T11:42:48.740Z,23.02
2023-05-20T11:43:49.406Z,23.07
2023-05-20T11:44:49.370Z,23.06
2023-05-20T11:45:49.384Z,23.15
2023-05-20T11:46:49.336Z,23.13
2023-05-20T11:47:48.765Z,23.12
2023-05-20T11:48:49.335Z,23.07
2023-05-20T11:49:49.315Z,23.14
2023-05-20T11:50:49.308Z,23.12
2023-05-20T11:51:49.280Z,23.15
2023-05-20T11:52:49.291Z,23.15
2023-05-20T11:53:48.595Z,23.18
2023-05-20T11:54:48.645Z,23.26
2023-05-20T11:55:48.577Z,23.28
2023-05-20T11:56:49.234Z,23.28
2023-05-20T11:57:48.550Z,23.35
2023-05-20T11:58:49.231Z,23.41
2023-05-20T11:59:49.208Z,23.46
2023-05-20T12:00:54.706Z,23.58
2023-05-20T12:01:51.448Z,23.70
2023-05-20T12:02:49.279Z,23.75
2023-05-20T12:03:49.374Z,23.75
2023-05-20T12:04:50.997Z,23.76
2023-05-20T12:05:48.476Z,23.79
2023-05-20T12:06:49.137Z,23.86
2023-05-20T12:07:49.128Z,23.91
2023-05-20T12:08:49.117Z,23.97
2023-05-20T12:09:49.086Z,24.05
2023-05-20T12:10:49.092Z,24.11
2023-05-20T12:11:49.090Z,24.22
2023-05-20T12:12:49.068Z,24.35
2023-05-20T12:13:48.386Z,24.37
2023-05-20T12:14:49.030Z,24.38
2023-05-20T12:15:49.071Z,24.34
2023-05-20T12:16:48.342Z,24.26
2023-05-20T12:17:49.092Z,24.14
2023-05-20T12:18:48.349Z,24.08
2023-05-20T12:19:48.983Z,24.01
2023-05-20T12:20:48.302Z,23.94
2023-05-20T12:21:48.313Z,23.95
2023-05-20T12:22:48.309Z,23.90
2023-05-20T12:23:48.930Z,23.84
2023-05-20T12:24:48.950Z,23.76
2023-05-20T12:25:48.930Z,23.71
2023-05-20T12:26:48.924Z,23.79
2023-05-20T12:27:48.942Z,23.92
2023-05-20T12:28:48.875Z,24.02
2023-05-20T12:29:48.883Z,24.09
2023-05-20T12:30:48.887Z,24.19
2023-05-20T12:31:48.926Z,24.20
2023-05-20T12:32:48.887Z,24.22
2023-05-20T12:33:48.823Z,24.29
2023-05-20T12:34:48.893Z,24.27
2023-05-20T12:35:49.105Z,24.24
2023-05-20T12:36:48.183Z,24.20
2023-05-20T12:37:48.177Z,24.19
2023-05-20T12:38:48.826Z,24.26
2023-05-20T12:39:48.868Z,24.32
2023-05-20T12:40:48.417Z,24.40
2023-05-20T12:41:48.926Z,24.48
2023-05-20T12:42:48.815Z,24.46
2023-05-20T12:43:48.767Z,24.43
2023-05-20T12:44:48.711Z,24.38
2023-05-20T12:45:48.049Z,24.34
2023-05-20T12:46:48.748Z,24.25
2023-05-20T12:47:48.046Z,24.21
2023-05-20T12:48:48.674Z,24.20
2023-05-20T12:49:48.656Z,24.30
2023-05-20T12:50:48.244Z,24.30
2023-05-20T12:51:48.622Z,24.28
2023-05-20T12:52:48.641Z,24.28
2023-05-20T12:53:48.615Z,24.29